Metar Cercanos

 

LEPA - Palma De Mallorc, Spain
Distance from station: ONO 38km
Actualización: 29/03/2017 22:30
Few Clouds
Few Clouds
 Viento del N
Viento: N 2 km/h
Temperatura: 13°C
Rocío: 12°C
Humedad: 94%
Barómetro: 1026 hPa
Clouds: Few Clouds
Visibility: 10 km
Cloud details: Few Clouds 549 m
2017/03/29 20:30 LEPA 292030Z 01001KT 9999 FEW018 13/12 Q1026 NOSIG
LEMH - Mahon/Menorca Is, Spain
Distance from station: ENE 105km
Actualización: 29/03/2017 22:30
Despejado
Despejado
 Viento del ONO
Viento: ONO 7 km/h
Temperatura: 12°C
Rocío: 8°C
Humedad: 77%
Barómetro: 1026 hPa
Resumen: Despejado
Visibility: greater than 10 km
2017/03/29 20:30 LEMH 292030Z 30004KT CAVOK 12/08 Q1026
 
LEIB - Ibiza/Es Codola, Spain
Distance from station: OSO 165km
Actualización: 29/03/2017 22:30
Despejado
Despejado
 Viento del NO
Viento: NO 6 km/h
Temperatura: 12°C
Rocío: 10°C
Humedad: 88%
Barómetro: 1027 hPa
Resumen: Despejado
Visibility: greater than 10 km
2017/03/29 20:30 LEIB 292030Z 31003KT 260V330 CAVOK 12/10 Q1027 NOSIG
LEBL - Barcelona Airpor, Spain
Distance from station: NNO 225km
Actualización: 29/03/2017 22:30
Despejado
Despejado
 Viento del SO
Viento: SO 9 km/h
Temperatura: 15°C
Rocío: 13°C
Humedad: 88%
Barómetro: 1026 hPa
Resumen: Despejado
Visibility: greater than 10 km
2017/03/29 20:30 LEBL 292030Z 22005KT CAVOK 15/13 Q1026 NOSIG
 
LEVC - Valencia (civ/Mi, Spain
Distance from station: NO 188km
Actualización: 29/03/2017 22:30
Despejado
Despejado
 Viento del varies
Viento: varies 4 km/h
Temperatura: 16°C
Rocío: 11°C
Humedad: 72%
Barómetro: 1026 hPa
Resumen: Despejado
Visibility: greater than 10 km
2017/03/29 20:30 LEVC 292030Z VRB02KT CAVOK 16/11 Q1026 NOSIG
LEGE - Gerona/Costa Bra, Spain
Distance from station: N 276km
Actualización: 29/03/2017 22:30
Despejado
Despejado
 Viento del calm
Viento: Calma
Temperatura: 12°C
Rocío: 6°C
Humedad: 67%
Barómetro: 1025 hPa
Resumen: Despejado
Visibility: greater than 10 km
2017/03/29 20:30 LEGE 292030Z 00000KT CAVOK 12/06 Q1025
 
LEAL - Alicante/El Alte, Spain
Distance from station: OSO 344km
Actualización: 29/03/2017 22:30
Despejado
Despejado
 Viento del calm
Viento: Calma
Temperatura: 14°C
Rocío: 12°C
Humedad: 88%
Barómetro: 1027 hPa
Resumen: Despejado
Visibility: greater than 10 km
2017/03/29 20:30 LEAL 292030Z 00000KT CAVOK 14/12 Q1027 NOSIG
LEAM - Almeria Airport, Spain
Distance from station: SSO 56km
Actualización: 29/03/2017 22:30
Despejado
Despejado
 Viento del NE
Viento: NE 13 km/h
Temperatura: 17°C
Rocío: 7°C
Humedad: 52%
Barómetro: 1026 hPa
Resumen: Despejado
Visibility: greater than 10 km
2017/03/29 20:30 LEAM 292030Z 05007KT CAVOK 17/07 Q1026
 
LEZG - Zaragoza (mil/Ci, Spain
Distance from station: NO 431km
Actualización: 29/03/2017 22:30
Despejado
Despejado
 Viento del calm
Viento: Calma
Temperatura: 16°C
Rocío: 8°C
Humedad: 59%
Barómetro: 1025 hPa
Resumen: Despejado
Visibility: greater than 10 km
2017/03/29 20:30 LEZG 292030Z 00000KT CAVOK 16/08 Q1025
LEMD - Madrid/Barajas, Spain
Distance from station: ONO 234km
Actualización: 29/03/2017 22:30
Despejado
Despejado
 Viento del varies
Viento: varies 4 km/h
Temperatura: 12°C
Rocío: 4°C
Humedad: 58%
Barómetro: 1025 hPa
Resumen: Despejado
Visibility: greater than 10 km
2017/03/29 20:30 LEMD 292030Z VRB02KT CAVOK 12/04 Q1025 NOSIG
 
LEGR - Granada Airport, Spain
Distance from station: OSO 62km
Actualización: 29/03/2017 22:30
Despejado
Despejado
 Viento del varies
Viento: varies 2 km/h
Temperatura: 15°C
Rocío: 4°C
Humedad: 48%
Barómetro: 1025 hPa
Resumen: Despejado
Visibility: greater than 10 km
2017/03/29 20:30 LEGR 292030Z VRB01KT CAVOK 15/04 Q1025
LEMG - Malaga (civ/Mil), Spain
Distance from station: OSO 227km
Actualización: 29/03/2017 22:30
Despejado
Despejado
 Viento del S
Viento: S 6 km/h
Temperatura: 15°C
Rocío: 7°C
Humedad: 59%
Barómetro: 1025 hPa
Resumen: Despejado
Visibility: greater than 10 km
2017/03/29 20:30 LEMG 292030Z 19003KT 150V210 CAVOK 15/07 Q1025 NOSIG
 
LEZL - Sevilla (civ/Mil, Spain
Distance from station: S 318km
Actualización: 29/03/2017 22:30
Despejado
Despejado
 Viento del S
Viento: S 9 km/h
Temperatura: 18°C
Rocío: 10°C
Humedad: 60%
Barómetro: 1023 hPa
Resumen: Despejado
Visibility: greater than 10 km
2017/03/29 20:30 LEZL 292030Z 18005KT CAVOK 18/10 Q1023 NOSIG
LEVT - Vitoria, Spain
Distance from station: NO 226km
Actualización: 29/03/2017 22:30
Despejado
Despejado
 Viento del varies
Viento: varies 4 km/h
Temperatura: 14°C
Rocío: 6°C
Humedad: 59%
Barómetro: 1024 hPa
Resumen: Despejado
Visibility: greater than 10 km
2017/03/29 20:30 LEVT 292030Z VRB02KT CAVOK 14/06 Q1024
 
LEBB - Bilbao/Sondica, Spain
Distance from station: NNO 235km
Actualización: 29/03/2017 22:30
Despejado
Despejado
 Viento del varies
Viento: varies 2 km/h
Temperatura: 16°C
Rocío: 10°C
Humedad: 68%
Barómetro: 1023 hPa
Resumen: Despejado
Visibility: greater than 10 km
2017/03/29 20:30 LEBB 292030Z VRB01KT CAVOK 16/10 Q1023 NOSIG
LESO - San Sebastian/Fu, Spain
Distance from station: N 231km
Actualización: 29/03/2017 22:30
Despejado
Despejado
 Viento del varies
Viento: varies 4 km/h
Temperatura: 14°C
Rocío: 11°C
Humedad: 82%
Barómetro: 1023 hPa
Clouds: Despejado
Visibility: 10 km
2017/03/29 20:30 LESO 292030Z AUTO VRB02KT 9999 NCD 14/11 Q1023
 
LEVD - Valladolid(Mil/C, Spain
Distance from station: ONO 239km
Actualización: 29/03/2017 21:30
NOT Current
Despejado
Despejado
 Viento del varies
Viento: varies 4 km/h
Temperatura: 14°C
Rocío: 3°C
Humedad: 48%
Barómetro: 1025 hPa
Resumen: Despejado
Visibility: greater than 10 km
2017/03/29 19:30 LEVD 291930Z VRB02KT CAVOK 14/03 Q1025
LESA - Salamanca (civ/M, Spain
Distance from station: ONO 349km
Actualización: 29/03/2017 22:30
Despejado
Despejado
 Viento del O
Viento: O 6 km/h
Temperatura: 11°C
Rocío: 5°C
Humedad: 67%
Barómetro: 1026 hPa
Resumen: Despejado
Visibility: greater than 10 km
2017/03/29 20:30 LESA 292030Z 26003KT CAVOK 11/05 Q1026
 
LEXJ - Santander/Paraya, Spain
Distance from station: NNO 247km
Actualización: 29/03/2017 22:30
Despejado
Despejado
 Viento del calm
Viento: Calma
Temperatura: 14°C
Rocío: 10°C
Humedad: 77%
Barómetro: 1022 hPa
Resumen: Despejado
Visibility: greater than 10 km
2017/03/29 20:30 LEXJ 292030Z 00000KT CAVOK 14/10 Q1022
LEAS - Asturias/Aviles, Spain
Distance from station: NO 214km
Actualización: 29/03/2017 22:30
Few Clouds
Few Clouds
 Viento del calm
Viento: Calma
Temperatura: 16°C
Rocío: 10°C
Humedad: 68%
Barómetro: 1022 hPa
Clouds: Few Clouds
Visibility: 10 km
Cloud details: Few Clouds 2591 m
2017/03/29 20:30 LEAS 292030Z 00000KT 9999 FEW085 16/10 Q1022 NOSIG
 
LECO - La Coruna/Alvedr, Spain
Distance from station: ONO 222km
Actualización: 29/03/2017 22:30
Despejado
Despejado
 Viento del SSE
Viento: SSE 6 km/h
Temperatura: 16°C
Rocío: 8°C
Humedad: 59%
Barómetro: 1022 hPa
Resumen: Despejado
Visibility: greater than 10 km
2017/03/29 20:30 LECO 292030Z 16003KT 100V220 CAVOK 16/08 Q1022 NOSIG
LEVX - Vigo/Peinador, Spain
Distance from station: O 214km
Actualización: 29/03/2017 22:30
Despejado
Despejado
 Viento del SSO
Viento: SSO 13 km/h
Temperatura: 14°C
Rocío: 9°C
Humedad: 72%
Barómetro: 1024 hPa
Resumen: Despejado
Visibility: greater than 10 km
2017/03/29 20:30 LEVX 292030Z 21007KT CAVOK 14/09 Q1024 NOSIG